sensor_id;sensor_type;location;lat;lon;timestamp;P1;durP1;ratioP1;P2;durP2;ratioP2
6561;SDS011;3314;50.890;4.722;2024-03-23T00:53:15;11.5;;;2.0;;
6561;SDS011;3314;50.890;4.722;2024-03-23T00:55:15;12.8;;;2.2;;
6561;SDS011;3314;50.890;4.722;2024-03-23T00:57:14;14.1;;;2.7;;
6561;SDS011;3314;50.890;4.722;2024-03-23T00:59:14;12.1;;;1.9;;
6561;SDS011;3314;50.890;4.722;2024-03-23T01:01:14;10.8;;;2.0;;
6561;SDS011;3314;50.890;4.722;2024-03-23T01:03:19;9.4;;;1.8;;
6561;SDS011;3314;50.890;4.722;2024-03-23T01:05:21;20.2;;;2.7;;
6561;SDS011;3314;50.890;4.722;2024-03-23T01:07:09;15.0;;;2.1;;
6561;SDS011;3314;50.890;4.722;2024-03-23T01:09:11;14.0;;;2.8;;
6561;SDS011;3314;50.890;4.722;2024-03-23T01:11:11;12.7;;;2.7;;
6561;SDS011;3314;50.890;4.722;2024-03-23T01:13:11;11.7;;;2.2;;
6561;SDS011;3314;50.890;4.722;2024-03-23T01:15:11;12.9;;;1.6;;
6561;SDS011;3314;50.890;4.722;2024-03-23T01:17:10;14.8;;;2.7;;
6561;SDS011;3314;50.890;4.722;2024-03-23T01:19:10;12.6;;;2.2;;
6561;SDS011;3314;50.890;4.722;2024-03-23T01:21:10;15.6;;;2.3;;
6561;SDS011;3314;50.890;4.722;2024-03-23T01:23:10;16.3;;;2.3;;
6561;SDS011;3314;50.890;4.722;2024-03-23T01:25:09;14.8;;;2.1;;
6561;SDS011;3314;50.890;4.722;2024-03-23T01:27:09;9.7;;;1.5;;
6561;SDS011;3314;50.890;4.722;2024-03-23T01:29:09;15.0;;;2.9;;
6561;SDS011;3314;50.890;4.722;2024-03-23T01:31:09;12.7;;;2.2;;
6561;SDS011;3314;50.890;4.722;2024-03-23T01:33:08;11.9;;;2.2;;
6561;SDS011;3314;50.890;4.722;2024-03-23T01:35:08;11.7;;;2.0;;
6561;SDS011;3314;50.890;4.722;2024-03-23T01:37:08;11.8;;;2.3;;
6561;SDS011;3314;50.890;4.722;2024-03-23T01:39:09;12.4;;;2.7;;
6561;SDS011;3314;50.890;4.722;2024-03-23T01:41:09;14.5;;;3.2;;
6561;SDS011;3314;50.890;4.722;2024-03-23T01:43:09;16.0;;;3.0;;
6561;SDS011;3314;50.890;4.722;2024-03-23T01:45:09;12.1;;;2.7;;
6561;SDS011;3314;50.890;4.722;2024-03-23T01:47:10;13.9;;;2.4;;
6561;SDS011;3314;50.890;4.722;2024-03-23T01:49:10;11.8;;;2.4;;
6561;SDS011;3314;50.890;4.722;2024-03-23T01:51:10;13.9;;;2.2;;
6561;SDS011;3314;50.890;4.722;2024-03-23T01:53:10;10.1;;;2.6;;
6561;SDS011;3314;50.890;4.722;2024-03-23T01:55:10;14.2;;;3.0;;
6561;SDS011;3314;50.890;4.722;2024-03-23T01:57:09;13.1;;;2.7;;
6561;SDS011;3314;50.890;4.722;2024-03-23T01:59:10;15.6;;;3.0;;
6561;SDS011;3314;50.890;4.722;2024-03-23T02:00:59;12.1;;;3.3;;
6561;SDS011;3314;50.890;4.722;2024-03-23T02:02:59;10.9;;;3.1;;
6561;SDS011;3314;50.890;4.722;2024-03-23T02:04:58;11.7;;;2.6;;
6561;SDS011;3314;50.890;4.722;2024-03-23T02:06:58;14.4;;;2.8;;
6561;SDS011;3314;50.890;4.722;2024-03-23T02:08:58;12.9;;;3.3;;
6561;SDS011;3314;50.890;4.722;2024-03-23T02:10:59;16.2;;;3.1;;
6561;SDS011;3314;50.890;4.722;2024-03-23T02:12:58;10.2;;;2.2;;
6561;SDS011;3314;50.890;4.722;2024-03-23T02:14:58;12.0;;;3.0;;
6561;SDS011;3314;50.890;4.722;2024-03-23T02:16:59;12.9;;;2.5;;
6561;SDS011;3314;50.890;4.722;2024-03-23T02:18:58;13.5;;;2.6;;
6561;SDS011;3314;50.890;4.722;2024-03-23T02:20:59;9.7;;;2.3;;
6561;SDS011;3314;50.890;4.722;2024-03-23T02:22:59;15.1;;;2.9;;
6561;SDS011;3314;50.890;4.722;2024-03-23T02:24:58;14.4;;;2.7;;
6561;SDS011;3314;50.890;4.722;2024-03-23T02:26:58;10.5;;;2.4;;
6561;SDS011;3314;50.890;4.722;2024-03-23T02:28:58;16.2;;;2.6;;
6561;SDS011;3314;50.890;4.722;2024-03-23T02:30:59;12.2;;;2.7;;
6561;SDS011;3314;50.890;4.722;2024-03-23T02:32:59;14.5;;;2.9;;
6561;SDS011;3314;50.890;4.722;2024-03-23T02:34:58;11.6;;;2.1;;
6561;SDS011;3314;50.890;4.722;2024-03-23T02:36:58;10.9;;;2.4;;
6561;SDS011;3314;50.890;4.722;2024-03-23T02:38:58;20.4;;;3.9;;
6561;SDS011;3314;50.890;4.722;2024-03-23T02:41:01;10.1;;;2.4;;
6561;SDS011;3314;50.890;4.722;2024-03-23T02:43:02;16.4;;;3.9;;
6561;SDS011;3314;50.890;4.722;2024-03-23T02:44:51;11.7;;;2.8;;
6561;SDS011;3314;50.890;4.722;2024-03-23T02:46:51;15.2;;;2.8;;
6561;SDS011;3314;50.890;4.722;2024-03-23T02:48:51;7.3;;;2.4;;
6561;SDS011;3314;50.890;4.722;2024-03-23T02:50:51;13.7;;;3.1;;
6561;SDS011;3314;50.890;4.722;2024-03-23T02:52:51;13.2;;;2.9;;
6561;SDS011;3314;50.890;4.722;2024-03-23T02:54:51;13.6;;;3.3;;
6561;SDS011;3314;50.890;4.722;2024-03-23T02:56:50;13.6;;;3.2;;
6561;SDS011;3314;50.890;4.722;2024-03-23T02:58:50;11.1;;;3.3;;
6561;SDS011;3314;50.890;4.722;2024-03-23T03:00:50;17.6;;;3.7;;
6561;SDS011;3314;50.890;4.722;2024-03-23T03:04:51;13.5;;;3.5;;
6561;SDS011;3314;50.890;4.722;2024-03-23T03:06:51;17.5;;;3.9;;
6561;SDS011;3314;50.890;4.722;2024-03-23T03:08:50;11.9;;;3.1;;
6561;SDS011;3314;50.890;4.722;2024-03-23T03:10:51;11.0;;;3.6;;
6561;SDS011;3314;50.890;4.722;2024-03-23T03:12:51;17.1;;;3.8;;
6561;SDS011;3314;50.890;4.722;2024-03-23T03:14:55;16.8;;;4.3;;
6561;SDS011;3314;50.890;4.722;2024-03-23T03:16:54;16.4;;;4.4;;
6561;SDS011;3314;50.890;4.722;2024-03-23T03:18:54;13.6;;;3.7;;
6561;SDS011;3314;50.890;4.722;2024-03-23T03:20:54;14.7;;;3.8;;
6561;SDS011;3314;50.890;4.722;2024-03-23T03:22:54;19.6;;;3.7;;
6561;SDS011;3314;50.890;4.722;2024-03-23T03:24:54;16.5;;;4.3;;
6561;SDS011;3314;50.890;4.722;2024-03-23T03:26:54;14.1;;;4.4;;
6561;SDS011;3314;50.890;4.722;2024-03-23T03:28:54;19.2;;;4.4;;
6561;SDS011;3314;50.890;4.722;2024-03-23T03:30:43;24.6;;;3.8;;
6561;SDS011;3314;50.890;4.722;2024-03-23T03:32:45;14.9;;;4.4;;
6561;SDS011;3314;50.890;4.722;2024-03-23T03:34:45;12.9;;;4.3;;
6561;SDS011;3314;50.890;4.722;2024-03-23T03:36:45;17.3;;;3.7;;
6561;SDS011;3314;50.890;4.722;2024-03-23T03:38:45;17.2;;;4.0;;
6561;SDS011;3314;50.890;4.722;2024-03-23T03:40:45;22.2;;;4.2;;
6561;SDS011;3314;50.890;4.722;2024-03-23T03:42:45;17.8;;;4.2;;
6561;SDS011;3314;50.890;4.722;2024-03-23T03:44:44;17.7;;;4.0;;
6561;SDS011;3314;50.890;4.722;2024-03-23T03:46:44;20.7;;;4.4;;
6561;SDS011;3314;50.890;4.722;2024-03-23T03:48:47;15.1;;;3.2;;
6561;SDS011;3314;50.890;4.722;2024-03-23T03:50:47;20.0;;;4.5;;
6561;SDS011;3314;50.890;4.722;2024-03-23T03:52:47;16.6;;;3.3;;
6561;SDS011;3314;50.890;4.722;2024-03-23T03:54:47;18.7;;;3.9;;
6561;SDS011;3314;50.890;4.722;2024-03-23T03:56:46;13.3;;;3.4;;
6561;SDS011;3314;50.890;4.722;2024-03-23T03:58:47;17.0;;;3.2;;
6561;SDS011;3314;50.890;4.722;2024-03-23T04:00:47;16.2;;;3.0;;
6561;SDS011;3314;50.890;4.722;2024-03-23T04:02:47;13.1;;;4.0;;
6561;SDS011;3314;50.890;4.722;2024-03-23T04:04:47;14.9;;;3.5;;
6561;SDS011;3314;50.890;4.722;2024-03-23T04:06:37;15.5;;;3.6;;
6561;SDS011;3314;50.890;4.722;2024-03-23T04:08:37;16.8;;;4.1;;
6561;SDS011;3314;50.890;4.722;2024-03-23T04:10:36;22.1;;;3.6;;
6561;SDS011;3314;50.890;4.722;2024-03-23T04:12:36;13.8;;;3.2;;
6561;SDS011;3314;50.890;4.722;2024-03-23T04:14:36;15.1;;;4.1;;
6561;SDS011;3314;50.890;4.722;2024-03-23T04:16:36;18.1;;;4.1;;
6561;SDS011;3314;50.890;4.722;2024-03-23T04:18:36;17.7;;;3.6;;
6561;SDS011;3314;50.890;4.722;2024-03-23T04:20:36;19.0;;;3.4;;
6561;SDS011;3314;50.890;4.722;2024-03-23T04:22:36;18.1;;;4.1;;
6561;SDS011;3314;50.890;4.722;2024-03-23T04:24:36;25.9;;;4.2;;
6561;SDS011;3314;50.890;4.722;2024-03-23T04:26:40;17.3;;;4.2;;
6561;SDS011;3314;50.890;4.722;2024-03-23T04:28:40;21.8;;;4.6;;
6561;SDS011;3314;50.890;4.722;2024-03-23T04:30:40;18.3;;;4.6;;
6561;SDS011;3314;50.890;4.722;2024-03-23T04:32:40;20.0;;;4.5;;
6561;SDS011;3314;50.890;4.722;2024-03-23T04:34:40;18.3;;;4.6;;
6561;SDS011;3314;50.890;4.722;2024-03-23T04:36:40;14.5;;;4.6;;
6561;SDS011;3314;50.890;4.722;2024-03-23T04:38:40;14.7;;;4.3;;
6561;SDS011;3314;50.890;4.722;2024-03-23T04:40:40;15.0;;;3.8;;
6561;SDS011;3314;50.890;4.722;2024-03-23T04:42:42;15.1;;;4.3;;
6561;SDS011;3314;50.890;4.722;2024-03-23T04:44:32;13.2;;;4.3;;
6561;SDS011;3314;50.890;4.722;2024-03-23T04:46:32;16.6;;;4.1;;
6561;SDS011;3314;50.890;4.722;2024-03-23T04:48:33;18.2;;;4.4;;
6561;SDS011;3314;50.890;4.722;2024-03-23T04:50:32;12.1;;;3.4;;
6561;SDS011;3314;50.890;4.722;2024-03-23T04:52:32;16.6;;;4.0;;
6561;SDS011;3314;50.890;4.722;2024-03-23T04:54:34;17.3;;;3.8;;
6561;SDS011;3314;50.890;4.722;2024-03-23T04:56:34;12.0;;;3.5;;
6561;SDS011;3314;50.890;4.722;2024-03-23T04:58:34;16.0;;;4.3;;
6561;SDS011;3314;50.890;4.722;2024-03-23T05:00:34;19.9;;;5.0;;
6561;SDS011;3314;50.890;4.722;2024-03-23T05:02:35;20.7;;;4.3;;
6561;SDS011;3314;50.890;4.722;2024-03-23T05:04:35;14.7;;;4.9;;
6561;SDS011;3314;50.890;4.722;2024-03-23T05:06:38;15.1;;;3.9;;
6561;SDS011;3314;50.890;4.722;2024-03-23T05:08:26;18.4;;;4.6;;
6561;SDS011;3314;50.890;4.722;2024-03-23T05:10:26;16.0;;;3.6;;
6561;SDS011;3314;50.890;4.722;2024-03-23T05:12:26;19.1;;;4.1;;
6561;SDS011;3314;50.890;4.722;2024-03-23T05:14:26;14.3;;;3.9;;
6561;SDS011;3314;50.890;4.722;2024-03-23T05:16:26;22.4;;;4.2;;
6561;SDS011;3314;50.890;4.722;2024-03-23T05:18:27;14.8;;;3.3;;
6561;SDS011;3314;50.890;4.722;2024-03-23T05:20:27;12.9;;;3.2;;
6561;SDS011;3314;50.890;4.722;2024-03-23T05:22:28;14.5;;;4.1;;
6561;SDS011;3314;50.890;4.722;2024-03-23T05:24:33;12.5;;;2.8;;
6561;SDS011;3314;50.890;4.722;2024-03-23T05:26:23;18.3;;;3.3;;
6561;SDS011;3314;50.890;4.722;2024-03-23T05:28:22;16.0;;;3.4;;
6561;SDS011;3314;50.890;4.722;2024-03-23T05:30:22;12.4;;;3.2;;
6561;SDS011;3314;50.890;4.722;2024-03-23T05:32:22;17.2;;;4.1;;
6561;SDS011;3314;50.890;4.722;2024-03-23T05:34:23;15.0;;;2.8;;
6561;SDS011;3314;50.890;4.722;2024-03-23T05:36:24;11.5;;;3.4;;
6561;SDS011;3314;50.890;4.722;2024-03-23T05:38:24;12.0;;;2.9;;
6561;SDS011;3314;50.890;4.722;2024-03-23T05:40:25;12.8;;;3.8;;
6561;SDS011;3314;50.890;4.722;2024-03-23T05:42:25;15.7;;;3.5;;
6561;SDS011;3314;50.890;4.722;2024-03-23T05:44:25;16.0;;;3.6;;
6561;SDS011;3314;50.890;4.722;2024-03-23T05:46:25;10.2;;;2.7;;
6561;SDS011;3314;50.890;4.722;2024-03-23T05:48:25;16.5;;;3.5;;
6561;SDS011;3314;50.890;4.722;2024-03-23T05:50:25;15.5;;;3.2;;
6561;SDS011;3314;50.890;4.722;2024-03-23T05:52:27;12.6;;;2.8;;
6561;SDS011;3314;50.890;4.722;2024-03-23T05:54:17;12.0;;;3.4;;
6561;SDS011;3314;50.890;4.722;2024-03-23T05:56:19;17.8;;;3.6;;
6561;SDS011;3314;50.890;4.722;2024-03-23T05:58:22;11.8;;;2.8;;
6561;SDS011;3314;50.890;4.722;2024-03-23T06:00:21;19.7;;;3.4;;
6561;SDS011;3314;50.890;4.722;2024-03-23T06:02:21;19.4;;;4.0;;
6561;SDS011;3314;50.890;4.722;2024-03-23T06:04:21;18.1;;;2.8;;
6561;SDS011;3314;50.890;4.722;2024-03-23T06:06:21;15.8;;;3.6;;
6561;SDS011;3314;50.890;4.722;2024-03-23T06:08:21;15.0;;;3.9;;
6561;SDS011;3314;50.890;4.722;2024-03-23T06:10:22;15.5;;;3.7;;
6561;SDS011;3314;50.890;4.722;2024-03-23T06:12:22;15.6;;;3.2;;
6561;SDS011;3314;50.890;4.722;2024-03-23T06:14:22;16.6;;;3.7;;
6561;SDS011;3314;50.890;4.722;2024-03-23T06:16:24;15.7;;;4.3;;
6561;SDS011;3314;50.890;4.722;2024-03-23T06:18:13;13.8;;;3.5;;
6561;SDS011;3314;50.890;4.722;2024-03-23T06:20:14;18.8;;;3.5;;
6561;SDS011;3314;50.890;4.722;2024-03-23T06:22:15;15.4;;;4.0;;
6561;SDS011;3314;50.890;4.722;2024-03-23T06:24:14;17.9;;;4.7;;
6561;SDS011;3314;50.890;4.722;2024-03-23T06:26:14;11.2;;;3.5;;
6561;SDS011;3314;50.890;4.722;2024-03-23T06:28:14;18.1;;;3.7;;
6561;SDS011;3314;50.890;4.722;2024-03-23T06:30:14;16.1;;;3.7;;
6561;SDS011;3314;50.890;4.722;2024-03-23T06:32:14;18.3;;;3.5;;
6561;SDS011;3314;50.890;4.722;2024-03-23T06:34:14;16.1;;;4.3;;
6561;SDS011;3314;50.890;4.722;2024-03-23T06:36:14;16.9;;;3.7;;
6561;SDS011;3314;50.890;4.722;2024-03-23T06:38:14;16.8;;;3.9;;
6561;SDS011;3314;50.890;4.722;2024-03-23T06:40:13;13.2;;;3.8;;
6561;SDS011;3314;50.890;4.722;2024-03-23T06:42:13;10.5;;;3.2;;
6561;SDS011;3314;50.890;4.722;2024-03-23T06:44:14;17.7;;;4.0;;
6561;SDS011;3314;50.890;4.722;2024-03-23T06:46:13;16.3;;;3.3;;
6561;SDS011;3314;50.890;4.722;2024-03-23T06:48:13;13.8;;;3.5;;
6561;SDS011;3314;50.890;4.722;2024-03-23T06:50:13;16.4;;;3.6;;
6561;SDS011;3314;50.890;4.722;2024-03-23T06:52:13;17.1;;;2.9;;
6561;SDS011;3314;50.890;4.722;2024-03-23T06:54:13;15.6;;;3.6;;
6561;SDS011;3314;50.890;4.722;2024-03-23T06:56:13;17.3;;;3.4;;
6561;SDS011;3314;50.890;4.722;2024-03-23T06:58:13;13.2;;;3.0;;
6561;SDS011;3314;50.890;4.722;2024-03-23T07:00:14;11.1;;;2.4;;
6561;SDS011;3314;50.890;4.722;2024-03-23T07:02:15;13.0;;;2.5;;
6561;SDS011;3314;50.890;4.722;2024-03-23T07:06:04;15.3;;;2.5;;
6561;SDS011;3314;50.890;4.722;2024-03-23T07:08:04;16.8;;;2.7;;
6561;SDS011;3314;50.890;4.722;2024-03-23T07:10:05;13.4;;;2.6;;
6561;SDS011;3314;50.890;4.722;2024-03-23T07:12:05;18.2;;;3.7;;
6561;SDS011;3314;50.890;4.722;2024-03-23T07:14:05;16.4;;;3.5;;
6561;SDS011;3314;50.890;4.722;2024-03-23T07:16:05;14.4;;;3.0;;
6561;SDS011;3314;50.890;4.722;2024-03-23T07:18:06;13.2;;;2.5;;
6561;SDS011;3314;50.890;4.722;2024-03-23T07:20:12;17.1;;;2.2;;
6561;SDS011;3314;50.890;4.722;2024-03-23T07:22:00;14.2;;;2.2;;
6561;SDS011;3314;50.890;4.722;2024-03-23T07:24:00;17.4;;;2.1;;
6561;SDS011;3314;50.890;4.722;2024-03-23T07:26:03;17.8;;;2.8;;
6561;SDS011;3314;50.890;4.722;2024-03-23T07:28:04;13.1;;;2.5;;
6561;SDS011;3314;50.890;4.722;2024-03-23T07:30:10;9.5;;;2.2;;
6561;SDS011;3314;50.890;4.722;2024-03-23T07:32:04;14.6;;;2.5;;
6561;SDS011;3314;50.890;4.722;2024-03-23T07:34:04;17.2;;;2.1;;
6561;SDS011;3314;50.890;4.722;2024-03-23T07:36:04;17.7;;;2.1;;
6561;SDS011;3314;50.890;4.722;2024-03-23T07:38:06;10.8;;;2.3;;
6561;SDS011;3314;50.890;4.722;2024-03-23T07:40:07;12.6;;;1.8;;
6561;SDS011;3314;50.890;4.722;2024-03-23T07:41:57;12.9;;;2.0;;
6561;SDS011;3314;50.890;4.722;2024-03-23T07:43:57;11.7;;;1.7;;
6561;SDS011;3314;50.890;4.722;2024-03-23T07:45:57;12.2;;;2.6;;
6561;SDS011;3314;50.890;4.722;2024-03-23T07:47:57;10.6;;;1.9;;
6561;SDS011;3314;50.890;4.722;2024-03-23T07:49:57;11.3;;;2.2;;
6561;SDS011;3314;50.890;4.722;2024-03-23T07:51:56;8.9;;;1.9;;
6561;SDS011;3314;50.890;4.722;2024-03-23T07:53:56;10.2;;;2.1;;
6561;SDS011;3314;50.890;4.722;2024-03-23T07:55:57;14.3;;;2.1;;
6561;SDS011;3314;50.890;4.722;2024-03-23T07:57:57;12.5;;;1.4;;
6561;SDS011;3314;50.890;4.722;2024-03-23T07:59:57;8.3;;;1.4;;
6561;SDS011;3314;50.890;4.722;2024-03-23T08:01:57;9.2;;;1.7;;
6561;SDS011;3314;50.890;4.722;2024-03-23T08:03:56;12.6;;;1.7;;
6561;SDS011;3314;50.890;4.722;2024-03-23T08:05:56;7.9;;;1.9;;
6561;SDS011;3314;50.890;4.722;2024-03-23T08:07:56;12.8;;;1.5;;
6561;SDS011;3314;50.890;4.722;2024-03-23T08:09:56;10.3;;;2.4;;
6561;SDS011;3314;50.890;4.722;2024-03-23T08:11:55;9.0;;;1.8;;
6561;SDS011;3314;50.890;4.722;2024-03-23T08:14:00;12.5;;;1.8;;
6561;SDS011;3314;50.890;4.722;2024-03-23T08:16:00;10.9;;;2.0;;
6561;SDS011;3314;50.890;4.722;2024-03-23T08:17:50;13.9;;;1.8;;
6561;SDS011;3314;50.890;4.722;2024-03-23T08:19:50;8.9;;;1.6;;
6561;SDS011;3314;50.890;4.722;2024-03-23T08:21:53;11.8;;;1.9;;
6561;SDS011;3314;50.890;4.722;2024-03-23T08:23:53;12.7;;;2.4;;
6561;SDS011;3314;50.890;4.722;2024-03-23T08:25:57;16.3;;;2.8;;
6561;SDS011;3314;50.890;4.722;2024-03-23T08:27:57;13.2;;;1.8;;
6561;SDS011;3314;50.890;4.722;2024-03-23T08:29:57;15.8;;;1.9;;
6561;SDS011;3314;50.890;4.722;2024-03-23T08:31:56;14.8;;;2.8;;
6561;SDS011;3314;50.890;4.722;2024-03-23T08:33:57;11.7;;;2.3;;
6561;SDS011;3314;50.890;4.722;2024-03-23T08:35:55;17.8;;;2.5;;
6561;SDS011;3314;50.890;4.722;2024-03-23T08:37:56;11.9;;;2.0;;
6561;SDS011;3314;50.890;4.722;2024-03-23T08:39:56;16.6;;;2.0;;
6561;SDS011;3314;50.890;4.722;2024-03-23T08:41:56;10.9;;;1.8;;
6561;SDS011;3314;50.890;4.722;2024-03-23T08:43:55;10.3;;;2.2;;
6561;SDS011;3314;50.890;4.722;2024-03-23T08:45:45;11.0;;;1.7;;
6561;SDS011;3314;50.890;4.722;2024-03-23T08:47:45;15.7;;;3.2;;
6561;SDS011;3314;50.890;4.722;2024-03-23T08:49:45;16.1;;;2.1;;
6561;SDS011;3314;50.890;4.722;2024-03-23T08:51:45;17.9;;;2.6;;
6561;SDS011;3314;50.890;4.722;2024-03-23T08:53:45;22.7;;;2.4;;
6561;SDS011;3314;50.890;4.722;2024-03-23T08:55:52;11.1;;;2.0;;
6561;SDS011;3314;50.890;4.722;2024-03-23T08:57:52;12.7;;;2.3;;
6561;SDS011;3314;50.890;4.722;2024-03-23T08:59:52;13.4;;;1.8;;
6561;SDS011;3314;50.890;4.722;2024-03-23T09:01:52;9.7;;;1.7;;
6561;SDS011;3314;50.890;4.722;2024-03-23T09:03:42;11.9;;;2.0;;
6561;SDS011;3314;50.890;4.722;2024-03-23T09:05:42;11.6;;;2.1;;
6561;SDS011;3314;50.890;4.722;2024-03-23T09:07:41;12.4;;;2.7;;
6561;SDS011;3314;50.890;4.722;2024-03-23T09:09:41;11.9;;;2.4;;
6561;SDS011;3314;50.890;4.722;2024-03-23T09:11:41;15.5;;;2.5;;
6561;SDS011;3314;50.890;4.722;2024-03-23T09:13:42;13.3;;;1.9;;
6561;SDS011;3314;50.890;4.722;2024-03-23T09:15:46;15.4;;;2.6;;
6561;SDS011;3314;50.890;4.722;2024-03-23T09:17:46;8.6;;;2.0;;
6561;SDS011;3314;50.890;4.722;2024-03-23T09:19:46;15.4;;;2.5;;
6561;SDS011;3314;50.890;4.722;2024-03-23T09:21:46;13.1;;;2.0;;
6561;SDS011;3314;50.890;4.722;2024-03-23T09:23:46;15.8;;;2.5;;
6561;SDS011;3314;50.890;4.722;2024-03-23T09:25:47;17.5;;;1.8;;
6561;SDS011;3314;50.890;4.722;2024-03-23T09:27:47;14.9;;;2.3;;
6561;SDS011;3314;50.890;4.722;2024-03-23T09:29:47;14.5;;;2.2;;
6561;SDS011;3314;50.890;4.722;2024-03-23T09:31:47;13.3;;;2.1;;
6561;SDS011;3314;50.890;4.722;2024-03-23T09:33:46;9.4;;;1.5;;
6561;SDS011;3314;50.890;4.722;2024-03-23T09:35:58;15.4;;;2.0;;
6561;SDS011;3314;50.890;4.722;2024-03-23T09:37:40;17.7;;;1.8;;
6561;SDS011;3314;50.890;4.722;2024-03-23T09:39:39;10.9;;;1.7;;
6561;SDS011;3314;50.890;4.722;2024-03-23T09:41:39;12.7;;;2.1;;
6561;SDS011;3314;50.890;4.722;2024-03-23T09:43:39;13.1;;;2.2;;
6561;SDS011;3314;50.890;4.722;2024-03-23T09:45:40;17.7;;;2.2;;
6561;SDS011;3314;50.890;4.722;2024-03-23T09:47:40;8.6;;;1.6;;
6561;SDS011;3314;50.890;4.722;2024-03-23T09:49:40;10.7;;;1.4;;
6561;SDS011;3314;50.890;4.722;2024-03-23T09:51:40;11.5;;;1.3;;
6561;SDS011;3314;50.890;4.722;2024-03-23T09:53:41;8.9;;;2.0;;
6561;SDS011;3314;50.890;4.722;2024-03-23T09:55:42;21.7;;;2.2;;
6561;SDS011;3314;50.890;4.722;2024-03-23T09:57:43;11.4;;;1.7;;
6561;SDS011;3314;50.890;4.722;2024-03-23T09:59:33;10.8;;;1.7;;
6561;SDS011;3314;50.890;4.722;2024-03-23T10:01:34;10.3;;;2.2;;
6561;SDS011;3314;50.890;4.722;2024-03-23T10:03:42;18.1;;;2.3;;
6561;SDS011;3314;50.890;4.722;2024-03-23T10:05:34;13.9;;;2.1;;
6561;SDS011;3314;50.890;4.722;2024-03-23T10:07:34;15.9;;;2.3;;
6561;SDS011;3314;50.890;4.722;2024-03-23T10:09:34;9.3;;;1.7;;
6561;SDS011;3314;50.890;4.722;2024-03-23T10:11:34;18.5;;;2.0;;
6561;SDS011;3314;50.890;4.722;2024-03-23T10:13:34;10.4;;;2.2;;
6561;SDS011;3314;50.890;4.722;2024-03-23T10:15:34;9.1;;;1.5;;
6561;SDS011;3314;50.890;4.722;2024-03-23T10:17:34;10.1;;;1.7;;
6561;SDS011;3314;50.890;4.722;2024-03-23T10:19:34;10.4;;;1.8;;
6561;SDS011;3314;50.890;4.722;2024-03-23T10:21:34;11.8;;;1.7;;
6561;SDS011;3314;50.890;4.722;2024-03-23T10:23:34;10.7;;;1.9;;
6561;SDS011;3314;50.890;4.722;2024-03-23T10:25:34;15.1;;;2.4;;
6561;SDS011;3314;50.890;4.722;2024-03-23T10:27:34;10.7;;;1.6;;
6561;SDS011;3314;50.890;4.722;2024-03-23T10:29:34;13.6;;;2.4;;
6561;SDS011;3314;50.890;4.722;2024-03-23T10:31:36;10.4;;;1.6;;
6561;SDS011;3314;50.890;4.722;2024-03-23T10:33:35;8.8;;;1.9;;
6561;SDS011;3314;50.890;4.722;2024-03-23T10:35:36;11.4;;;2.1;;
6561;SDS011;3314;50.890;4.722;2024-03-23T10:37:26;12.5;;;1.9;;
6561;SDS011;3314;50.890;4.722;2024-03-23T10:39:26;9.8;;;1.5;;
6561;SDS011;3314;50.890;4.722;2024-03-23T10:41:26;12.0;;;1.7;;
6561;SDS011;3314;50.890;4.722;2024-03-23T10:43:27;12.3;;;1.7;;
6561;SDS011;3314;50.890;4.722;2024-03-23T10:45:27;10.6;;;2.0;;
6561;SDS011;3314;50.890;4.722;2024-03-23T10:47:26;10.4;;;1.8;;
6561;SDS011;3314;50.890;4.722;2024-03-23T10:49:31;10.0;;;1.5;;
6561;SDS011;3314;50.890;4.722;2024-03-23T10:51:31;10.8;;;1.8;;
6561;SDS011;3314;50.890;4.722;2024-03-23T10:53:31;10.5;;;1.5;;
6561;SDS011;3314;50.890;4.722;2024-03-23T10:55:35;10.1;;;1.4;;
6561;SDS011;3314;50.890;4.722;2024-03-23T10:57:23;9.1;;;1.3;;
6561;SDS011;3314;50.890;4.722;2024-03-23T10:59:31;9.4;;;1.5;;
6561;SDS011;3314;50.890;4.722;2024-03-23T11:01:25;11.8;;;1.8;;
6561;SDS011;3314;50.890;4.722;2024-03-23T11:03:30;8.2;;;1.5;;
6561;SDS011;3314;50.890;4.722;2024-03-23T11:05:30;11.6;;;1.7;;
6561;SDS011;3314;50.890;4.722;2024-03-23T11:07:31;8.7;;;1.5;;
6561;SDS011;3314;50.890;4.722;2024-03-23T11:09:52;11.7;;;1.7;;
6561;SDS011;3314;50.890;4.722;2024-03-23T11:11:28;13.2;;;2.0;;
6561;SDS011;3314;50.890;4.722;2024-03-23T11:13:30;12.1;;;1.8;;
6561;SDS011;3314;50.890;4.722;2024-03-23T11:15:19;17.2;;;1.9;;
6561;SDS011;3314;50.890;4.722;2024-03-23T11:17:20;9.5;;;1.4;;
6561;SDS011;3314;50.890;4.722;2024-03-23T11:19:39;12.7;;;1.3;;
6561;SDS011;3314;50.890;4.722;2024-03-23T11:21:59;9.7;;;0.9;;
6561;SDS011;3314;50.890;4.722;2024-03-23T11:23:27;9.2;;;1.3;;
6561;SDS011;3314;50.890;4.722;2024-03-23T11:25:27;7.3;;;1.0;;
6561;SDS011;3314;50.890;4.722;2024-03-23T11:27:27;9.6;;;1.0;;
6561;SDS011;3314;50.890;4.722;2024-03-23T11:29:27;11.1;;;2.0;;
6561;SDS011;3314;50.890;4.722;2024-03-23T11:31:26;10.7;;;1.4;;
6561;SDS011;3314;50.890;4.722;2024-03-23T11:33:17;12.6;;;1.5;;
6561;SDS011;3314;50.890;4.722;2024-03-23T11:35:40;9.9;;;1.2;;
6561;SDS011;3314;50.890;4.722;2024-03-23T11:37:17;8.5;;;0.8;;
6561;SDS011;3314;50.890;4.722;2024-03-23T11:39:17;10.6;;;1.6;;
6561;SDS011;3314;50.890;4.722;2024-03-23T11:41:22;10.0;;;1.5;;
6561;SDS011;3314;50.890;4.722;2024-03-23T11:43:24;9.4;;;1.4;;
6561;SDS011;3314;50.890;4.722;2024-03-23T11:45:23;10.8;;;1.2;;
6561;SDS011;3314;50.890;4.722;2024-03-23T11:47:23;10.9;;;0.9;;
6561;SDS011;3314;50.890;4.722;2024-03-23T11:49:23;11.7;;;1.1;;
6561;SDS011;3314;50.890;4.722;2024-03-23T11:51:23;11.8;;;1.3;;
6561;SDS011;3314;50.890;4.722;2024-03-23T11:55:18;11.2;;;1.2;;
6561;SDS011;3314;50.890;4.722;2024-03-23T11:57:17;12.4;;;1.1;;
6561;SDS011;3314;50.890;4.722;2024-03-23T11:59:29;9.0;;;0.8;;
6561;SDS011;3314;50.890;4.722;2024-03-23T12:01:18;10.9;;;1.1;;
6561;SDS011;3314;50.890;4.722;2024-03-23T12:03:18;9.4;;;1.0;;
6561;SDS011;3314;50.890;4.722;2024-03-23T12:05:18;9.5;;;1.1;;
6561;SDS011;3314;50.890;4.722;2024-03-23T12:07:20;9.0;;;1.0;;
6561;SDS011;3314;50.890;4.722;2024-03-23T12:09:20;9.4;;;1.0;;
6561;SDS011;3314;50.890;4.722;2024-03-23T12:11:22;9.4;;;0.9;;
6561;SDS011;3314;50.890;4.722;2024-03-23T12:15:17;8.4;;;1.1;;
6561;SDS011;3314;50.890;4.722;2024-03-23T12:17:16;9.5;;;0.9;;
6561;SDS011;3314;50.890;4.722;2024-03-23T12:19:16;10.2;;;1.0;;
6561;SDS011;3314;50.890;4.722;2024-03-23T12:21:19;9.8;;;1.0;;
6561;SDS011;3314;50.890;4.722;2024-03-23T12:23:18;10.6;;;1.0;;
6561;SDS011;3314;50.890;4.722;2024-03-23T12:25:18;8.9;;;1.0;;
6561;SDS011;3314;50.890;4.722;2024-03-23T12:27:19;11.5;;;1.2;;
6561;SDS011;3314;50.890;4.722;2024-03-23T12:29:08;10.5;;;0.8;;
6561;SDS011;3314;50.890;4.722;2024-03-23T12:31:08;9.1;;;1.4;;
6561;SDS011;3314;50.890;4.722;2024-03-23T12:33:08;10.1;;;1.0;;
6561;SDS011;3314;50.890;4.722;2024-03-23T12:35:10;10.0;;;0.9;;
6561;SDS011;3314;50.890;4.722;2024-03-23T12:37:10;9.8;;;1.7;;
6561;SDS011;3314;50.890;4.722;2024-03-23T12:39:13;10.4;;;1.2;;
6561;SDS011;3314;50.890;4.722;2024-03-23T12:41:15;8.7;;;1.2;;
6561;SDS011;3314;50.890;4.722;2024-03-23T12:43:15;8.9;;;1.1;;
6561;SDS011;3314;50.890;4.722;2024-03-23T12:45:15;10.5;;;1.4;;
6561;SDS011;3314;50.890;4.722;2024-03-23T12:47:15;8.7;;;0.9;;
6561;SDS011;3314;50.890;4.722;2024-03-23T12:49:14;9.6;;;0.9;;
6561;SDS011;3314;50.890;4.722;2024-03-23T12:51:15;8.9;;;0.9;;
6561;SDS011;3314;50.890;4.722;2024-03-23T12:53:04;7.4;;;0.9;;
6561;SDS011;3314;50.890;4.722;2024-03-23T12:55:06;8.7;;;1.2;;
6561;SDS011;3314;50.890;4.722;2024-03-23T12:57:06;7.6;;;0.8;;
6561;SDS011;3314;50.890;4.722;2024-03-23T12:59:05;8.8;;;0.7;;
6561;SDS011;3314;50.890;4.722;2024-03-23T13:01:06;8.4;;;1.0;;
6561;SDS011;3314;50.890;4.722;2024-03-23T13:03:06;6.2;;;0.7;;
6561;SDS011;3314;50.890;4.722;2024-03-23T13:05:09;11.6;;;0.9;;
6561;SDS011;3314;50.890;4.722;2024-03-23T13:07:10;7.9;;;0.7;;
6561;SDS011;3314;50.890;4.722;2024-03-23T13:09:10;8.0;;;0.7;;
6561;SDS011;3314;50.890;4.722;2024-03-23T13:11:10;10.9;;;1.4;;
6561;SDS011;3314;50.890;4.722;2024-03-23T13:13:10;9.6;;;0.9;;
6561;SDS011;3314;50.890;4.722;2024-03-23T13:15:10;6.8;;;0.7;;
6561;SDS011;3314;50.890;4.722;2024-03-23T13:17:09;12.4;;;1.3;;
6561;SDS011;3314;50.890;4.722;2024-03-23T13:19:09;13.7;;;1.2;;
6561;SDS011;3314;50.890;4.722;2024-03-23T13:21:09;13.2;;;1.6;;
6561;SDS011;3314;50.890;4.722;2024-03-23T13:23:09;11.7;;;1.3;;
6561;SDS011;3314;50.890;4.722;2024-03-23T13:25:09;8.1;;;1.4;;
6561;SDS011;3314;50.890;4.722;2024-03-23T13:27:10;13.1;;;0.9;;
6561;SDS011;3314;50.890;4.722;2024-03-23T13:28:59;10.4;;;1.3;;
6561;SDS011;3314;50.890;4.722;2024-03-23T13:31:04;8.7;;;0.8;;
6561;SDS011;3314;50.890;4.722;2024-03-23T13:33:05;13.1;;;1.7;;
6561;SDS011;3314;50.890;4.722;2024-03-23T13:35:07;7.0;;;0.9;;
6561;SDS011;3314;50.890;4.722;2024-03-23T13:37:07;11.0;;;1.4;;